sensor_id;sensor_type;location;lat;lon;timestamp;pressure;altitude;pressure_sealevel;temperature;humidity
61287;BME280;56412;53.148;8.204;2022-07-23T00:01:07;101882.81;;;19.45;54.08
61287;BME280;56412;53.148;8.204;2022-07-23T00:03:32;101875.50;;;19.37;53.90
61287;BME280;56412;53.148;8.204;2022-07-23T00:05:57;101880.28;;;19.32;54.10
61287;BME280;56412;53.148;8.204;2022-07-23T00:08:22;101885.06;;;19.27;54.21
61287;BME280;56412;53.148;8.204;2022-07-23T00:10:47;101891.47;;;19.23;53.96
61287;BME280;56412;53.148;8.204;2022-07-23T00:13:13;101873.47;;;19.18;54.30
61287;BME280;56412;53.148;8.204;2022-07-23T00:15:38;101876.78;;;19.09;54.48
61287;BME280;56412;53.148;8.204;2022-07-23T00:18:03;101881.53;;;19.04;54.67
61287;BME280;56412;53.148;8.204;2022-07-23T00:20:29;101887.94;;;19.00;55.01
61287;BME280;56412;53.148;8.204;2022-07-23T00:22:54;101893.59;;;19.06;55.03
61287;BME280;56412;53.148;8.204;2022-07-23T00:25:20;101893.75;;;19.16;55.47
61287;BME280;56412;53.148;8.204;2022-07-23T00:27:46;101900.31;;;19.22;55.39
61287;BME280;56412;53.148;8.204;2022-07-23T00:30:11;101896.16;;;19.31;54.92
61287;BME280;56412;53.148;8.204;2022-07-23T00:32:49;101898.06;;;19.28;54.96
61287;BME280;56412;53.148;8.204;2022-07-23T00:35:15;101887.06;;;19.23;54.99
61287;BME280;56412;53.148;8.204;2022-07-23T00:37:40;101891.63;;;19.21;54.99
61287;BME280;56412;53.148;8.204;2022-07-23T00:40:06;101894.72;;;19.15;55.50
61287;BME280;56412;53.148;8.204;2022-07-23T00:42:31;101879.88;;;19.14;55.37
61287;BME280;56412;53.148;8.204;2022-07-23T00:44:57;101866.16;;;19.11;55.12
61287;BME280;56412;53.148;8.204;2022-07-23T00:47:22;101868.91;;;19.09;55.22
61287;BME280;56412;53.148;8.204;2022-07-23T00:49:48;101863.88;;;19.06;55.04
61287;BME280;56412;53.148;8.204;2022-07-23T00:52:13;101868.19;;;19.07;55.48
61287;BME280;56412;53.148;8.204;2022-07-23T00:54:38;101871.75;;;19.06;55.28
61287;BME280;56412;53.148;8.204;2022-07-23T00:57:03;101869.97;;;19.06;55.27
61287;BME280;56412;53.148;8.204;2022-07-23T00:59:28;101887.28;;;19.09;55.12
61287;BME280;56412;53.148;8.204;2022-07-23T01:01:54;101886.09;;;19.13;56.13
61287;BME280;56412;53.148;8.204;2022-07-23T01:04:19;101880.25;;;19.10;56.40
61287;BME280;56412;53.148;8.204;2022-07-23T01:06:44;101870.66;;;19.09;56.25
61287;BME280;56412;53.148;8.204;2022-07-23T01:09:10;101869.75;;;19.10;55.75
61287;BME280;56412;53.148;8.204;2022-07-23T01:11:35;101873.28;;;19.09;56.08
61287;BME280;56412;53.148;8.204;2022-07-23T01:14:34;101869.16;;;19.06;56.07
61287;BME280;56412;53.148;8.204;2022-07-23T01:16:53;101867.19;;;18.97;56.42
61287;BME280;56412;53.148;8.204;2022-07-23T01:19:18;101868.03;;;18.97;56.75
61287;BME280;56412;53.148;8.204;2022-07-23T01:21:47;101857.19;;;19.02;56.91
61287;BME280;56412;53.148;8.204;2022-07-23T01:24:13;101865.88;;;19.02;56.70
61287;BME280;56412;53.148;8.204;2022-07-23T01:26:40;101869.72;;;18.98;56.70
61287;BME280;56412;53.148;8.204;2022-07-23T01:29:06;101878.88;;;18.93;57.36
61287;BME280;56412;53.148;8.204;2022-07-23T01:31:31;101871.69;;;18.83;57.69
61287;BME280;56412;53.148;8.204;2022-07-23T01:33:57;101870.50;;;18.88;57.43
61287;BME280;56412;53.148;8.204;2022-07-23T01:36:22;101859.41;;;18.84;57.31
61287;BME280;56412;53.148;8.204;2022-07-23T01:38:48;101857.59;;;18.84;57.19
61287;BME280;56412;53.148;8.204;2022-07-23T01:41:13;101859.28;;;18.86;57.09
61287;BME280;56412;53.148;8.204;2022-07-23T01:43:38;101850.78;;;18.82;56.72
61287;BME280;56412;53.148;8.204;2022-07-23T01:46:03;101858.91;;;18.79;56.86
61287;BME280;56412;53.148;8.204;2022-07-23T01:48:28;101855.56;;;18.77;57.14
61287;BME280;56412;53.148;8.204;2022-07-23T01:50:54;101859.25;;;18.74;57.12
61287;BME280;56412;53.148;8.204;2022-07-23T01:53:19;101850.00;;;18.69;57.24
61287;BME280;56412;53.148;8.204;2022-07-23T01:55:44;101845.31;;;18.61;57.64
61287;BME280;56412;53.148;8.204;2022-07-23T01:58:09;101848.41;;;18.55;58.49
61287;BME280;56412;53.148;8.204;2022-07-23T02:00:35;101837.63;;;18.47;58.32
61287;BME280;56412;53.148;8.204;2022-07-23T02:03:00;101841.31;;;18.44;58.08
61287;BME280;56412;53.148;8.204;2022-07-23T02:05:25;101836.41;;;18.39;57.98
61287;BME280;56412;53.148;8.204;2022-07-23T02:07:53;101830.66;;;18.34;58.69
61287;BME280;56412;53.148;8.204;2022-07-23T02:10:19;101828.47;;;18.28;58.70
61287;BME280;56412;53.148;8.204;2022-07-23T02:12:44;101825.34;;;18.23;58.69
61287;BME280;56412;53.148;8.204;2022-07-23T02:15:09;101819.63;;;18.18;59.15
61287;BME280;56412;53.148;8.204;2022-07-23T02:17:35;101819.72;;;18.16;58.87
61287;BME280;56412;53.148;8.204;2022-07-23T02:20:00;101818.50;;;18.09;59.57
61287;BME280;56412;53.148;8.204;2022-07-23T02:22:25;101813.63;;;18.16;58.81
61287;BME280;56412;53.148;8.204;2022-07-23T02:24:51;101809.44;;;18.13;59.29
61287;BME280;56412;53.148;8.204;2022-07-23T02:27:16;101817.22;;;18.15;58.74
61287;BME280;56412;53.148;8.204;2022-07-23T02:29:41;101808.63;;;18.13;58.77
61287;BME280;56412;53.148;8.204;2022-07-23T02:32:06;101818.72;;;18.06;59.38
61287;BME280;56412;53.148;8.204;2022-07-23T02:34:31;101813.47;;;18.06;59.17
61287;BME280;56412;53.148;8.204;2022-07-23T02:36:57;101808.78;;;17.99;59.54
61287;BME280;56412;53.148;8.204;2022-07-23T02:39:22;101811.00;;;17.92;59.56
61287;BME280;56412;53.148;8.204;2022-07-23T02:41:47;101805.97;;;17.89;59.46
61287;BME280;56412;53.148;8.204;2022-07-23T02:44:12;101799.81;;;17.64;60.77
61287;BME280;56412;53.148;8.204;2022-07-23T02:46:37;101809.66;;;17.74;60.36
61287;BME280;56412;53.148;8.204;2022-07-23T02:49:03;101814.91;;;17.86;59.69
61287;BME280;56412;53.148;8.204;2022-07-23T02:51:29;101814.69;;;17.64;60.67
61287;BME280;56412;53.148;8.204;2022-07-23T02:53:54;101812.84;;;17.40;61.37
61287;BME280;56412;53.148;8.204;2022-07-23T02:56:19;101817.34;;;17.51;61.25
61287;BME280;56412;53.148;8.204;2022-07-23T02:58:45;101820.72;;;17.53;61.09
61287;BME280;56412;53.148;8.204;2022-07-23T03:01:10;101812.63;;;17.56;60.93
61287;BME280;56412;53.148;8.204;2022-07-23T03:03:35;101811.84;;;17.67;60.15
61287;BME280;56412;53.148;8.204;2022-07-23T03:06:00;101817.53;;;17.61;60.32
61287;BME280;56412;53.148;8.204;2022-07-23T03:08:25;101822.34;;;17.67;60.03
61287;BME280;56412;53.148;8.204;2022-07-23T03:10:51;101815.88;;;17.60;59.77
61287;BME280;56412;53.148;8.204;2022-07-23T03:13:16;101814.72;;;17.51;59.81
61287;BME280;56412;53.148;8.204;2022-07-23T03:15:41;101816.19;;;17.42;60.56
61287;BME280;56412;53.148;8.204;2022-07-23T03:18:07;101805.63;;;17.31;60.62
61287;BME280;56412;53.148;8.204;2022-07-23T03:20:32;101805.09;;;17.39;60.99
61287;BME280;56412;53.148;8.204;2022-07-23T03:22:57;101802.91;;;17.45;60.86
61287;BME280;56412;53.148;8.204;2022-07-23T03:25:22;101809.78;;;17.46;60.30
61287;BME280;56412;53.148;8.204;2022-07-23T03:27:47;101820.19;;;17.48;60.98
61287;BME280;56412;53.148;8.204;2022-07-23T03:30:13;101817.53;;;17.61;60.05
61287;BME280;56412;53.148;8.204;2022-07-23T03:32:38;101820.47;;;17.69;59.83
61287;BME280;56412;53.148;8.204;2022-07-23T03:35:04;101815.22;;;17.69;59.95
61287;BME280;56412;53.148;8.204;2022-07-23T03:37:29;101821.00;;;17.61;60.18
61287;BME280;56412;53.148;8.204;2022-07-23T03:39:54;101815.47;;;17.53;59.88
61287;BME280;56412;53.148;8.204;2022-07-23T03:42:20;101804.16;;;17.40;60.08
61287;BME280;56412;53.148;8.204;2022-07-23T03:44:45;101809.84;;;17.21;60.34
61287;BME280;56412;53.148;8.204;2022-07-23T03:47:10;101811.38;;;17.11;60.66
61287;BME280;56412;53.148;8.204;2022-07-23T03:49:35;101816.28;;;17.02;61.43
61287;BME280;56412;53.148;8.204;2022-07-23T03:52:01;101819.25;;;16.98;61.72
61287;BME280;56412;53.148;8.204;2022-07-23T03:54:26;101823.94;;;16.93;62.25
61287;BME280;56412;53.148;8.204;2022-07-23T03:56:51;101816.22;;;16.91;61.70
61287;BME280;56412;53.148;8.204;2022-07-23T03:59:16;101820.69;;;16.89;61.88
61287;BME280;56412;53.148;8.204;2022-07-23T04:01:41;101815.88;;;16.83;61.50
61287;BME280;56412;53.148;8.204;2022-07-23T04:04:07;101820.47;;;16.79;62.10
61287;BME280;56412;53.148;8.204;2022-07-23T04:06:33;101818.03;;;16.76;61.52
61287;BME280;56412;53.148;8.204;2022-07-23T04:08:58;101821.97;;;16.69;61.28
61287;BME280;56412;53.148;8.204;2022-07-23T04:11:24;101817.03;;;16.65;61.74
61287;BME280;56412;53.148;8.204;2022-07-23T04:13:49;101821.22;;;16.67;61.95
61287;BME280;56412;53.148;8.204;2022-07-23T04:16:14;101819.47;;;16.68;61.63
61287;BME280;56412;53.148;8.204;2022-07-23T04:18:39;101817.78;;;16.67;62.18
61287;BME280;56412;53.148;8.204;2022-07-23T04:21:05;101809.84;;;16.68;62.35
61287;BME280;56412;53.148;8.204;2022-07-23T04:23:30;101820.00;;;16.73;62.62
61287;BME280;56412;53.148;8.204;2022-07-23T04:25:56;101818.22;;;16.73;61.97
61287;BME280;56412;53.148;8.204;2022-07-23T04:28:21;101825.13;;;16.74;62.50
61287;BME280;56412;53.148;8.204;2022-07-23T04:30:46;101815.50;;;16.75;61.99
61287;BME280;56412;53.148;8.204;2022-07-23T04:33:11;101811.88;;;16.77;61.85
61287;BME280;56412;53.148;8.204;2022-07-23T04:35:37;101822.22;;;16.79;61.83
61287;BME280;56412;53.148;8.204;2022-07-23T04:38:02;101807.91;;;16.85;61.95
61287;BME280;56412;53.148;8.204;2022-07-23T04:40:28;101815.53;;;16.88;61.68
61287;BME280;56412;53.148;8.204;2022-07-23T04:42:53;101816.50;;;16.87;61.38
61287;BME280;56412;53.148;8.204;2022-07-23T04:45:19;101823.59;;;16.85;62.16
61287;BME280;56412;53.148;8.204;2022-07-23T04:47:44;101830.13;;;16.92;62.45
61287;BME280;56412;53.148;8.204;2022-07-23T04:50:09;101824.06;;;17.04;62.09
61287;BME280;56412;53.148;8.204;2022-07-23T04:52:34;101827.72;;;17.14;61.86
61287;BME280;56412;53.148;8.204;2022-07-23T04:54:59;101829.63;;;17.25;61.67
61287;BME280;56412;53.148;8.204;2022-07-23T04:57:25;101823.75;;;17.34;61.26
61287;BME280;56412;53.148;8.204;2022-07-23T04:59:50;101824.91;;;17.43;61.06
61287;BME280;56412;53.148;8.204;2022-07-23T05:02:15;101825.00;;;17.54;60.90
61287;BME280;56412;53.148;8.204;2022-07-23T05:04:41;101831.03;;;17.67;60.56
61287;BME280;56412;53.148;8.204;2022-07-23T05:07:06;101835.47;;;17.80;60.37
61287;BME280;56412;53.148;8.204;2022-07-23T05:09:31;101838.06;;;17.92;60.18
61287;BME280;56412;53.148;8.204;2022-07-23T05:11:57;101835.72;;;18.01;59.87
61287;BME280;56412;53.148;8.204;2022-07-23T05:14:22;101840.59;;;18.18;59.33
61287;BME280;56412;53.148;8.204;2022-07-23T05:16:47;101832.50;;;18.21;59.10
61287;BME280;56412;53.148;8.204;2022-07-23T05:19:12;101832.16;;;18.02;59.76
61287;BME280;56412;53.148;8.204;2022-07-23T05:21:38;101829.16;;;18.19;59.26
61287;BME280;56412;53.148;8.204;2022-07-23T05:24:04;101827.75;;;18.26;58.83
61287;BME280;56412;53.148;8.204;2022-07-23T05:26:29;101830.28;;;18.28;58.85
61287;BME280;56412;53.148;8.204;2022-07-23T05:28:54;101831.47;;;18.24;59.26
61287;BME280;56412;53.148;8.204;2022-07-23T05:31:19;101831.25;;;18.38;58.69
61287;BME280;56412;53.148;8.204;2022-07-23T05:33:45;101833.94;;;18.49;58.25
61287;BME280;56412;53.148;8.204;2022-07-23T05:36:10;101834.72;;;18.63;58.17
61287;BME280;56412;53.148;8.204;2022-07-23T05:38:35;101844.16;;;18.65;57.76
61287;BME280;56412;53.148;8.204;2022-07-23T05:41:01;101836.25;;;18.30;58.54
61287;BME280;56412;53.148;8.204;2022-07-23T05:43:26;101853.25;;;18.48;58.26
61287;BME280;56412;53.148;8.204;2022-07-23T05:45:51;101853.88;;;18.76;57.75
61287;BME280;56412;53.148;8.204;2022-07-23T05:48:17;101856.16;;;18.80;57.54
61287;BME280;56412;53.148;8.204;2022-07-23T05:50:42;101850.13;;;19.02;56.81
61287;BME280;56412;53.148;8.204;2022-07-23T05:53:07;101843.78;;;18.94;56.42
61287;BME280;56412;53.148;8.204;2022-07-23T05:55:33;101847.41;;;19.04;56.93
61287;BME280;56412;53.148;8.204;2022-07-23T05:57:58;101849.13;;;19.39;55.32
61287;BME280;56412;53.148;8.204;2022-07-23T06:00:24;101854.41;;;19.72;54.81
61287;BME280;56412;53.148;8.204;2022-07-23T06:02:49;101855.59;;;19.57;53.97
61287;BME280;56412;53.148;8.204;2022-07-23T06:05:14;101855.22;;;19.50;53.80
61287;BME280;56412;53.148;8.204;2022-07-23T06:07:39;101860.91;;;20.67;51.99
61287;BME280;56412;53.148;8.204;2022-07-23T06:10:05;101862.34;;;21.13;49.75
61287;BME280;56412;53.148;8.204;2022-07-23T06:12:30;101868.03;;;21.18;50.10
61287;BME280;56412;53.148;8.204;2022-07-23T06:14:56;101864.97;;;21.64;49.18
61287;BME280;56412;53.148;8.204;2022-07-23T06:17:21;101877.75;;;21.38;48.32
61287;BME280;56412;53.148;8.204;2022-07-23T06:19:46;101874.94;;;20.56;50.53
61287;BME280;56412;53.148;8.204;2022-07-23T06:22:12;101874.22;;;20.86;50.06
61287;BME280;56412;53.148;8.204;2022-07-23T06:24:37;101875.44;;;21.45;49.31
61287;BME280;56412;53.148;8.204;2022-07-23T06:27:02;101884.00;;;21.68;48.92
61287;BME280;56412;53.148;8.204;2022-07-23T06:29:27;101880.63;;;21.56;49.20
61287;BME280;56412;53.148;8.204;2022-07-23T06:31:53;101883.78;;;21.81;48.11
61287;BME280;56412;53.148;8.204;2022-07-23T06:34:18;101886.09;;;21.01;49.22
61287;BME280;56412;53.148;8.204;2022-07-23T06:36:43;101888.53;;;21.35;49.04
61287;BME280;56412;53.148;8.204;2022-07-23T06:39:08;101885.72;;;21.27;49.49
61287;BME280;56412;53.148;8.204;2022-07-23T06:41:33;101885.91;;;21.56;48.73
61287;BME280;56412;53.148;8.204;2022-07-23T06:43:59;101882.47;;;21.65;48.89
61287;BME280;56412;53.148;8.204;2022-07-23T06:46:24;101895.97;;;21.82;48.56
61287;BME280;56412;53.148;8.204;2022-07-23T06:48:50;101899.13;;;22.06;48.07
61287;BME280;56412;53.148;8.204;2022-07-23T06:51:15;101896.97;;;21.81;48.33
61287;BME280;56412;53.148;8.204;2022-07-23T06:53:40;101895.78;;;21.64;49.13
61287;BME280;56412;53.148;8.204;2022-07-23T06:56:06;101904.47;;;21.54;48.69
61287;BME280;56412;53.148;8.204;2022-07-23T06:58:31;101893.44;;;21.19;49.67
61287;BME280;56412;53.148;8.204;2022-07-23T07:00:56;101894.88;;;20.91;49.96
61287;BME280;56412;53.148;8.204;2022-07-23T07:03:21;101895.63;;;20.60;50.74
61287;BME280;56412;53.148;8.204;2022-07-23T07:05:47;101897.38;;;20.71;50.51
61287;BME280;56412;53.148;8.204;2022-07-23T07:08:12;101892.91;;;20.83;50.42
61287;BME280;56412;53.148;8.204;2022-07-23T07:10:37;101894.53;;;21.16;49.75
61287;BME280;56412;53.148;8.204;2022-07-23T07:13:02;101907.38;;;20.56;51.26
61287;BME280;56412;53.148;8.204;2022-07-23T07:15:28;101906.97;;;19.84;53.47
61287;BME280;56412;53.148;8.204;2022-07-23T07:17:53;101916.50;;;19.62;54.78
61287;BME280;56412;53.148;8.204;2022-07-23T07:20:18;101912.84;;;18.83;57.00
61287;BME280;56412;53.148;8.204;2022-07-23T07:22:43;101915.47;;;18.59;58.85
61287;BME280;56412;53.148;8.204;2022-07-23T07:25:08;101916.00;;;18.27;59.85
61287;BME280;56412;53.148;8.204;2022-07-23T07:27:34;101907.84;;;19.15;58.46
61287;BME280;56412;53.148;8.204;2022-07-23T07:29:59;101919.69;;;18.97;57.64
61287;BME280;56412;53.148;8.204;2022-07-23T07:32:24;101910.22;;;19.18;56.63
61287;BME280;56412;53.148;8.204;2022-07-23T07:34:50;101921.19;;;19.12;57.71
61287;BME280;56412;53.148;8.204;2022-07-23T07:37:15;101922.53;;;19.18;56.76
61287;BME280;56412;53.148;8.204;2022-07-23T07:39:40;101917.94;;;20.23;54.12
61287;BME280;56412;53.148;8.204;2022-07-23T07:42:05;101917.25;;;19.98;54.16
61287;BME280;56412;53.148;8.204;2022-07-23T07:44:31;101916.66;;;20.72;52.81
61287;BME280;56412;53.148;8.204;2022-07-23T07:46:56;101919.78;;;21.61;50.18
61287;BME280;56412;53.148;8.204;2022-07-23T07:49:21;101926.06;;;22.50;48.25
61287;BME280;56412;53.148;8.204;2022-07-23T07:51:46;101926.78;;;23.01;46.75
61287;BME280;56412;53.148;8.204;2022-07-23T07:54:12;101934.97;;;23.27;45.35
61287;BME280;56412;53.148;8.204;2022-07-23T07:56:37;101930.66;;;22.08;47.03
61287;BME280;56412;53.148;8.204;2022-07-23T07:59:02;101933.56;;;22.05;48.45
61287;BME280;56412;53.148;8.204;2022-07-23T08:01:27;101933.06;;;21.80;47.87
61287;BME280;56412;53.148;8.204;2022-07-23T08:03:53;101932.75;;;22.14;47.81
61287;BME280;56412;53.148;8.204;2022-07-23T08:06:18;101938.94;;;22.24;47.12
61287;BME280;56412;53.148;8.204;2022-07-23T08:08:43;101939.25;;;22.50;46.64
61287;BME280;56412;53.148;8.204;2022-07-23T08:11:08;101946.22;;;22.80;46.12
61287;BME280;56412;53.148;8.204;2022-07-23T08:13:33;101941.31;;;23.44;44.86
61287;BME280;56412;53.148;8.204;2022-07-23T08:15:59;101949.06;;;23.55;44.77
61287;BME280;56412;53.148;8.204;2022-07-23T08:18:24;101952.81;;;23.62;43.92
61287;BME280;56412;53.148;8.204;2022-07-23T08:20:49;101946.97;;;23.68;43.96
61287;BME280;56412;53.148;8.204;2022-07-23T08:23:14;101955.66;;;23.88;43.64
61287;BME280;56412;53.148;8.204;2022-07-23T08:25:43;101943.66;;;24.49;42.92
61287;BME280;56412;53.148;8.204;2022-07-23T08:28:09;101945.53;;;24.11;42.73
61287;BME280;56412;53.148;8.204;2022-07-23T08:30:35;101939.50;;;25.00;40.87
61287;BME280;56412;53.148;8.204;2022-07-23T08:33:04;101942.97;;;24.47;40.82
61287;BME280;56412;53.148;8.204;2022-07-23T08:35:34;101940.97;;;25.21;40.34
61287;BME280;56412;53.148;8.204;2022-07-23T08:38:00;101944.34;;;24.87;40.04
61287;BME280;56412;53.148;8.204;2022-07-23T08:40:26;101937.69;;;25.01;39.79
61287;BME280;56412;53.148;8.204;2022-07-23T08:42:52;101943.16;;;24.63;38.49
61287;BME280;56412;53.148;8.204;2022-07-23T08:45:18;101939.81;;;24.61;39.23
61287;BME280;56412;53.148;8.204;2022-07-23T08:47:45;101938.97;;;24.15;39.85
61287;BME280;56412;53.148;8.204;2022-07-23T08:50:12;101936.00;;;23.91;39.92
61287;BME280;56412;53.148;8.204;2022-07-23T08:52:37;101939.16;;;24.04;40.00
61287;BME280;56412;53.148;8.204;2022-07-23T08:55:03;101928.53;;;24.95;38.72
61287;BME280;56412;53.148;8.204;2022-07-23T08:57:29;101930.84;;;25.16;38.36
61287;BME280;56412;53.148;8.204;2022-07-23T08:59:54;101931.03;;;24.61;38.44
61287;BME280;56412;53.148;8.204;2022-07-23T09:02:20;101934.38;;;24.45;38.24
61287;BME280;56412;53.148;8.204;2022-07-23T09:04:45;101923.53;;;24.92;36.94
61287;BME280;56412;53.148;8.204;2022-07-23T09:07:10;101925.19;;;25.37;37.11
61287;BME280;56412;53.148;8.204;2022-07-23T09:09:36;101923.84;;;25.67;35.87
61287;BME280;56412;53.148;8.204;2022-07-23T09:12:05;101923.81;;;25.07;36.08
61287;BME280;56412;53.148;8.204;2022-07-23T09:14:43;101929.94;;;26.36;35.53
61287;BME280;56412;53.148;8.204;2022-07-23T09:17:12;101936.50;;;25.39;35.65
61287;BME280;56412;53.148;8.204;2022-07-23T09:19:39;101933.25;;;24.65;36.62
61287;BME280;56412;53.148;8.204;2022-07-23T09:27:26;101923.88;;;24.97;36.80
61287;BME280;56412;53.148;8.204;2022-07-23T09:30:09;101930.41;;;26.23;34.90
61287;BME280;56412;53.148;8.204;2022-07-23T09:32:35;101941.44;;;25.94;35.43
61287;BME280;56412;53.148;8.204;2022-07-23T09:35:00;101925.38;;;27.04;33.97
61287;BME280;56412;53.148;8.204;2022-07-23T09:37:25;101925.75;;;28.12;33.09
61287;BME280;56412;53.148;8.204;2022-07-23T09:39:50;101926.88;;;26.07;34.72
61287;BME280;56412;53.148;8.204;2022-07-23T09:42:19;101932.50;;;25.17;36.43
61287;BME280;56412;53.148;8.204;2022-07-23T09:44:49;101926.81;;;25.30;37.32
61287;BME280;56412;53.148;8.204;2022-07-23T09:47:15;101927.38;;;25.76;37.08
61287;BME280;56412;53.148;8.204;2022-07-23T09:49:42;101932.41;;;24.83;37.54
61287;BME280;56412;53.148;8.204;2022-07-23T09:52:25;101938.97;;;24.43;38.86
61287;BME280;56412;53.148;8.204;2022-07-23T09:54:51;101935.09;;;24.55;38.14
61287;BME280;56412;53.148;8.204;2022-07-23T09:57:22;101937.50;;;24.31;38.31
61287;BME280;56412;53.148;8.204;2022-07-23T09:59:47;101936.47;;;24.95;37.02
61287;BME280;56412;53.148;8.204;2022-07-23T10:02:12;101937.09;;;25.59;36.32
61287;BME280;56412;53.148;8.204;2022-07-23T10:04:39;101933.41;;;26.28;34.88
61287;BME280;56412;53.148;8.204;2022-07-23T10:07:05;101940.53;;;25.51;34.50
61287;BME280;56412;53.148;8.204;2022-07-23T10:09:35;101937.53;;;26.23;34.15
61287;BME280;56412;53.148;8.204;2022-07-23T10:12:05;101943.31;;;25.76;34.62
61287;BME280;56412;53.148;8.204;2022-07-23T10:14:45;101946.44;;;25.71;34.19
61287;BME280;56412;53.148;8.204;2022-07-23T10:17:11;101939.94;;;25.13;35.71
61287;BME280;56412;53.148;8.204;2022-07-23T10:19:36;101941.00;;;25.81;35.38
61287;BME280;56412;53.148;8.204;2022-07-23T10:22:03;101938.50;;;25.79;34.69
61287;BME280;56412;53.148;8.204;2022-07-23T10:30:03;101954.56;;;24.18;35.61
61287;BME280;56412;53.148;8.204;2022-07-23T10:32:51;101935.34;;;25.42;35.18
61287;BME280;56412;53.148;8.204;2022-07-23T10:35:29;101940.31;;;25.71;34.68
61287;BME280;56412;53.148;8.204;2022-07-23T10:38:10;101943.63;;;27.23;33.03
61287;BME280;56412;53.148;8.204;2022-07-23T10:40:36;101943.31;;;26.10;32.81
61287;BME280;56412;53.148;8.204;2022-07-23T10:43:01;101939.69;;;25.77;33.25
61287;BME280;56412;53.148;8.204;2022-07-23T10:45:37;101947.94;;;25.40;33.90
61287;BME280;56412;53.148;8.204;2022-07-23T10:48:13;101941.72;;;24.51;35.53
61287;BME280;56412;53.148;8.204;2022-07-23T10:50:39;101939.53;;;25.08;34.42
61287;BME280;56412;53.148;8.204;2022-07-23T10:57:56;101938.06;;;24.88;34.60
61287;BME280;56412;53.148;8.204;2022-07-23T11:00:25;101934.16;;;25.70;34.60
61287;BME280;56412;53.148;8.204;2022-07-23T11:03:01;101943.94;;;25.70;33.72
61287;BME280;56412;53.148;8.204;2022-07-23T11:05:39;101951.13;;;24.36;35.67
61287;BME280;56412;53.148;8.204;2022-07-23T11:10:47;101948.75;;;25.40;34.88
61287;BME280;56412;53.148;8.204;2022-07-23T11:24:03;101954.56;;;25.96;31.30
61287;BME280;56412;53.148;8.204;2022-07-23T11:31:57;101956.94;;;26.90;29.22
61287;BME280;56412;53.148;8.204;2022-07-23T11:34:35;101955.97;;;27.88;28.24
61287;BME280;56412;53.148;8.204;2022-07-23T11:37:03;101953.94;;;31.39;24.15
61287;BME280;56412;53.148;8.204;2022-07-23T11:39:29;101944.25;;;33.54;21.53
61287;BME280;56412;53.148;8.204;2022-07-23T11:41:55;101944.59;;;34.79;19.23
61287;BME280;56412;53.148;8.204;2022-07-23T11:44:30;101932.59;;;34.19;18.95
61287;BME280;56412;53.148;8.204;2022-07-23T11:46:56;101938.88;;;34.69;19.03
61287;BME280;56412;53.148;8.204;2022-07-23T11:49:22;101938.69;;;35.88;17.70
61287;BME280;56412;53.148;8.204;2022-07-23T11:52:01;101945.69;;;33.43;19.70
61287;BME280;56412;53.148;8.204;2022-07-23T11:54:27;101945.03;;;30.03;24.50
61287;BME280;56412;53.148;8.204;2022-07-23T11:56:56;101963.38;;;28.09;26.78
61287;BME280;56412;53.148;8.204;2022-07-23T11:59:21;101960.56;;;26.06;30.43
61287;BME280;56412;53.148;8.204;2022-07-23T12:02:01;101952.22;;;25.67;30.89
61287;BME280;56412;53.148;8.204;2022-07-23T12:07:04;101947.63;;;32.90;21.28
61287;BME280;56412;53.148;8.204;2022-07-23T12:09:29;101948.16;;;30.43;23.74
61287;BME280;56412;53.148;8.204;2022-07-23T12:11:58;101956.72;;;28.44;25.57
61287;BME280;56412;53.148;8.204;2022-07-23T12:14:24;101951.31;;;28.98;25.57
61287;BME280;56412;53.148;8.204;2022-07-23T12:17:10;101956.19;;;28.41;26.57
61287;BME280;56412;53.148;8.204;2022-07-23T12:19:36;101947.31;;;28.25;27.32
61287;BME280;56412;53.148;8.204;2022-07-23T12:22:01;101959.16;;;28.54;26.92
61287;BME280;56412;53.148;8.204;2022-07-23T12:24:26;101949.06;;;31.21;22.50
61287;BME280;56412;53.148;8.204;2022-07-23T12:29:35;101947.69;;;35.82;18.93
61287;BME280;56412;53.148;8.204;2022-07-23T12:32:01;101952.72;;;37.68;16.22
61287;BME280;56412;53.148;8.204;2022-07-23T12:34:26;101946.28;;;35.42;18.64
61287;BME280;56412;53.148;8.204;2022-07-23T12:36:51;101961.50;;;32.12;21.28
61287;BME280;56412;53.148;8.204;2022-07-23T12:39:30;101956.03;;;28.88;25.70
61287;BME280;56412;53.148;8.204;2022-07-23T12:41:55;101968.78;;;28.55;25.75
61287;BME280;56412;53.148;8.204;2022-07-23T12:44:21;101981.44;;;28.30;25.37
61287;BME280;56412;53.148;8.204;2022-07-23T12:46:49;101967.81;;;31.21;23.55
61287;BME280;56412;53.148;8.204;2022-07-23T12:49:24;101970.56;;;32.11;21.50
61287;BME280;56412;53.148;8.204;2022-07-23T12:51:50;101967.13;;;30.91;23.71
61287;BME280;56412;53.148;8.204;2022-07-23T12:54:15;101960.19;;;32.56;22.01
61287;BME280;56412;53.148;8.204;2022-07-23T12:56:40;101953.50;;;30.07;24.48
61287;BME280;56412;53.148;8.204;2022-07-23T12:59:10;101976.25;;;29.88;24.95
61287;BME280;56412;53.148;8.204;2022-07-23T13:01:39;101959.09;;;34.15;21.00
61287;BME280;56412;53.148;8.204;2022-07-23T13:04:05;101972.06;;;35.13;18.58
61287;BME280;56412;53.148;8.204;2022-07-23T13:08:59;101964.97;;;36.11;17.86
61287;BME280;56412;53.148;8.204;2022-07-23T13:11:25;101955.25;;;38.60;16.33
61287;BME280;56412;53.148;8.204;2022-07-23T13:13:50;101963.25;;;39.67;15.04
61287;BME280;56412;53.148;8.204;2022-07-23T13:16:15;101978.22;;;33.87;19.41
61287;BME280;56412;53.148;8.204;2022-07-23T13:18:40;101974.13;;;31.14;22.61
61287;BME280;56412;53.148;8.204;2022-07-23T13:21:06;101977.59;;;30.28;24.48
61287;BME280;56412;53.148;8.204;2022-07-23T13:23:31;101984.97;;;28.99;26.22
61287;BME280;56412;53.148;8.204;2022-07-23T13:25:56;101963.91;;;34.00;20.85
61287;BME280;56412;53.148;8.204;2022-07-23T13:28:22;101973.59;;;34.46;19.80